10:04
Airports
History
Links
Donate
Help keep this website running!
PayPal
Bitcoin
This page is community maintained. The information is intended for PC simulator navigation or reference.
Always use approved charts for navigation.
ENHV
Honningsvaag Valan
Honningsvaag Valan (ENHV)
Honningsvåg, Finnmark, Norway (9751)
(C)
Lat/Lng:71° 0' 34.94" N / 25° 59' 2.45" E
71.009705 / 25.984013
Elevation:46'ft / 14mMSL
ID / ICAO:ENHV
Runways:1
Longest:08-26
Asphalt 885m / 2,904ft
Controlled:Yes
METAR21:20 GMT 2017-11-17
Altimeter: 29.50
Visibility: 6.2 statute miles
Wind: 2 knots (from 220°)
Temp: -2°c / 28°f
Humidity: 86.1%

METAR: ENHV 172120Z 22002KT 9999 SCT045 M02/M04 Q0999

(Powered by phpweather)
Nearby VORs <50NM
Nearby NDBs
Runway 08 / 26
Dimensions:885.1 x 29.9m 2904' x 98'ft
Surface:Asphalt
Edge Lights:Medium intensity
Runway 08 [A]Runway 26 [B]
Heading:089°TH 269°TH
Lat:
Lng:
71° 0' 34.81"N
25° 58' 18.69"E
71° 0' 35.06"N
25° 59' 46.2"E
ALS:RAILRAIL
User Notes and Comments
71° 0' 34.94" N / 25° 59' 2.45" E
Distance To
Airport ID:
Nearby Airports
(C) Mehamn 41.4 NM
ENMH E 88°
(C) Hammerfest 57.2 NM
ENHF ( WX ) WSW 246°
(C) BANAK 69.0 NM
ENNA ( WX ) SSW 199°
(C) Berlevaag 69.5 NM
ENBV E 97°
(C) BATSFJORD 88.9 NM
ENBS ESE 108°
(C) ALTA 93.5 NM
ENAT ( WX ) SW 220°
(U) HASVIK 94.7 NM
ENHK WSW 247°
VFR Chart
Flight Planning at SkyVector.com